createdAt,value
2023-01-21T00:01:01.497Z,50.04
2023-01-21T00:03:28.718Z,50.36
2023-01-21T00:05:58.390Z,50.34
2023-01-21T00:08:26.330Z,50.54
2023-01-21T00:10:53.738Z,50.65
2023-01-21T00:13:20.945Z,50.37
2023-01-21T00:15:48.738Z,50.28
2023-01-21T00:18:16.060Z,50.04
2023-01-21T00:20:43.424Z,49.73
2023-01-21T00:23:11.173Z,49.43
2023-01-21T00:25:38.362Z,49.32
2023-01-21T00:28:05.695Z,49.35
2023-01-21T00:30:33.361Z,49.64
2023-01-21T00:33:00.604Z,49.39
2023-01-21T00:35:27.847Z,49.21
2023-01-21T00:37:55.128Z,49.51
2023-01-21T00:40:22.372Z,49.35
2023-01-21T00:42:49.635Z,49.31
2023-01-21T00:45:17.049Z,49.06
2023-01-21T00:47:44.304Z,48.74
2023-01-21T00:50:11.828Z,48.64
2023-01-21T00:52:39.100Z,48.28
2023-01-21T00:55:06.672Z,48.44
2023-01-21T00:57:34.162Z,48.41
2023-01-21T01:00:01.415Z,48.25
2023-01-21T01:02:28.621Z,48.35
2023-01-21T01:04:56.025Z,48.30
2023-01-21T01:07:23.965Z,48.41
2023-01-21T01:09:51.226Z,48.34
2023-01-21T01:12:18.484Z,48.39
2023-01-21T01:14:45.680Z,48.29
2023-01-21T01:17:12.869Z,48.12
2023-01-21T01:19:40.083Z,48.07
2023-01-21T01:22:07.302Z,48.15
2023-01-21T01:24:34.455Z,48.35
2023-01-21T01:27:01.957Z,48.32
2023-01-21T01:29:29.186Z,47.90
2023-01-21T01:31:56.439Z,47.83
2023-01-21T01:34:23.685Z,48.01
2023-01-21T01:36:50.887Z,47.69
2023-01-21T01:39:18.103Z,47.34
2023-01-21T01:41:45.370Z,47.38
2023-01-21T01:44:50.527Z,47.53
2023-01-21T01:47:17.727Z,47.60
2023-01-21T01:49:44.927Z,47.72
2023-01-21T01:52:12.158Z,47.78
2023-01-21T01:54:50.016Z,47.69
2023-01-21T01:57:18.534Z,47.75
2023-01-21T01:59:46.220Z,47.78
2023-01-21T02:02:15.144Z,47.52
2023-01-21T02:04:48.226Z,47.61
2023-01-21T02:07:16.093Z,47.94
2023-01-21T02:09:43.328Z,48.03
2023-01-21T02:12:10.568Z,47.56
2023-01-21T02:14:43.126Z,47.79
2023-01-21T02:17:17.652Z,47.63
2023-01-21T02:20:03.780Z,47.34
2023-01-21T02:22:40.185Z,47.22
2023-01-21T02:25:27.292Z,47.26
2023-01-21T02:28:32.260Z,47.06
2023-01-21T02:30:59.585Z,46.75
2023-01-21T02:33:53.155Z,46.48
2023-01-21T02:37:06.117Z,46.48
2023-01-21T02:40:09.002Z,46.22
2023-01-21T02:42:51.065Z,46.46
2023-01-21T02:45:28.380Z,46.29
2023-01-21T02:48:16.795Z,46.00
2023-01-21T02:50:52.875Z,45.97
2023-01-21T02:53:27.533Z,45.86
2023-01-21T02:55:55.028Z,45.87
2023-01-21T02:58:29.526Z,46.15
2023-01-21T03:01:14.583Z,46.45
2023-01-21T03:04:03.963Z,46.52
2023-01-21T03:06:49.164Z,46.65
2023-01-21T03:09:27.249Z,46.74
2023-01-21T03:12:26.310Z,46.27
2023-01-21T03:15:30.160Z,46.27
2023-01-21T03:18:06.643Z,46.53
2023-01-21T03:20:45.379Z,46.62
2023-01-21T03:23:18.199Z,46.88
2023-01-21T03:25:45.517Z,46.52
2023-01-21T03:28:14.099Z,46.46
2023-01-21T03:30:42.660Z,46.25
2023-01-21T03:33:10.341Z,46.00
2023-01-21T03:35:40.857Z,45.89
2023-01-21T03:38:31.781Z,46.15
2023-01-21T03:41:20.657Z,46.46
2023-01-21T03:43:47.809Z,46.61
2023-01-21T03:46:20.975Z,47.04
2023-01-21T03:49:05.086Z,47.35
2023-01-21T03:51:39.564Z,47.24
2023-01-21T03:54:06.713Z,47.46
2023-01-21T03:56:33.920Z,47.36
2023-01-21T03:59:01.129Z,47.09
2023-01-21T04:01:28.325Z,46.92
2023-01-21T04:03:55.508Z,47.40
2023-01-21T04:06:23.189Z,47.33
2023-01-21T04:08:50.434Z,47.49
2023-01-21T04:11:17.575Z,47.44
2023-01-21T04:13:45.022Z,47.50
2023-01-21T04:16:12.267Z,47.33
2023-01-21T04:18:39.563Z,47.44
2023-01-21T04:21:06.872Z,47.37
2023-01-21T04:23:34.189Z,47.49
2023-01-21T04:26:01.489Z,48.08
2023-01-21T04:28:28.782Z,47.69
2023-01-21T04:30:56.107Z,47.56
2023-01-21T04:33:23.826Z,47.20
2023-01-21T04:35:51.034Z,47.23
2023-01-21T04:38:18.397Z,47.25
2023-01-21T04:40:45.630Z,47.22
2023-01-21T04:43:12.790Z,47.68
2023-01-21T04:45:40.087Z,47.61
2023-01-21T04:48:07.910Z,47.55
2023-01-21T04:50:35.210Z,47.77
2023-01-21T04:53:02.374Z,47.74
2023-01-21T04:55:29.567Z,47.82
2023-01-21T04:57:56.763Z,48.08
2023-01-21T05:00:24.052Z,48.15
2023-01-21T05:02:51.267Z,48.21
2023-01-21T05:05:18.491Z,48.13
2023-01-21T05:07:45.748Z,48.25
2023-01-21T05:10:17.335Z,48.42
2023-01-21T05:12:44.852Z,48.63
2023-01-21T05:15:12.041Z,48.65
2023-01-21T05:17:39.416Z,48.73
2023-01-21T05:20:07.063Z,48.22
2023-01-21T05:22:34.222Z,48.08
2023-01-21T05:25:01.925Z,48.04
2023-01-21T05:27:29.230Z,47.98
2023-01-21T05:29:57.360Z,47.89
2023-01-21T05:32:24.752Z,48.05
2023-01-21T05:34:51.982Z,48.23
2023-01-21T05:37:19.264Z,48.34
2023-01-21T05:39:46.541Z,48.23
2023-01-21T05:42:13.732Z,48.18
2023-01-21T05:44:40.970Z,48.40
2023-01-21T05:47:09.046Z,48.60
2023-01-21T05:49:36.547Z,48.43
2023-01-21T05:52:03.956Z,48.30
2023-01-21T05:54:31.254Z,48.64
2023-01-21T05:56:58.466Z,48.79
2023-01-21T05:59:25.670Z,48.70
2023-01-21T06:01:53.062Z,48.42
2023-01-21T06:04:21.837Z,48.46
2023-01-21T06:06:51.007Z,48.50
2023-01-21T06:09:18.084Z,48.98
2023-01-21T06:11:45.239Z,49.31
2023-01-21T06:14:12.830Z,49.08
2023-01-21T06:16:40.275Z,48.73
2023-01-21T06:19:07.612Z,49.13
2023-01-21T06:21:34.839Z,49.08
2023-01-21T06:24:02.857Z,49.06
2023-01-21T06:26:30.119Z,48.94
2023-01-21T06:28:57.639Z,48.91
2023-01-21T06:31:24.954Z,48.77
2023-01-21T06:33:52.557Z,48.62
2023-01-21T06:36:19.755Z,48.61
2023-01-21T06:38:46.965Z,48.51
2023-01-21T06:41:14.200Z,48.16
2023-01-21T06:43:41.379Z,48.24
2023-01-21T06:46:08.641Z,48.28
2023-01-21T06:48:35.960Z,48.40
2023-01-21T06:51:03.201Z,48.30
2023-01-21T06:53:30.767Z,48.11
2023-01-21T06:55:57.913Z,48.34
2023-01-21T06:58:25.227Z,48.72
2023-01-21T07:00:52.381Z,48.66
2023-01-21T07:03:19.826Z,48.58
2023-01-21T07:05:47.109Z,48.94
2023-01-21T07:08:14.793Z,48.85
2023-01-21T07:10:43.346Z,49.12
2023-01-21T07:13:10.517Z,49.22
2023-01-21T07:15:37.737Z,48.95
2023-01-21T07:18:05.007Z,48.89
2023-01-21T07:20:32.214Z,48.89
2023-01-21T07:22:59.499Z,48.74
2023-01-21T07:25:26.771Z,48.90
2023-01-21T07:27:53.940Z,48.93
2023-01-21T07:30:21.591Z,48.74
2023-01-21T07:32:48.858Z,48.77
2023-01-21T07:35:16.500Z,49.15
2023-01-21T07:37:44.281Z,49.20
2023-01-21T07:40:12.011Z,49.00
2023-01-21T07:42:39.279Z,48.79
2023-01-21T07:45:07.401Z,49.03
2023-01-21T07:47:34.944Z,48.91
2023-01-21T07:50:05.284Z,48.76
2023-01-21T07:52:32.576Z,48.72
2023-01-21T07:55:01.904Z,48.89
2023-01-21T07:57:29.967Z,48.87
2023-01-21T07:59:57.937Z,48.69
2023-01-21T08:02:25.432Z,48.53
2023-01-21T08:04:52.801Z,48.71
2023-01-21T08:07:19.997Z,48.74
2023-01-21T08:09:47.183Z,48.63
2023-01-21T08:12:14.521Z,48.53
2023-01-21T08:14:41.728Z,48.50
2023-01-21T08:17:08.928Z,49.17
2023-01-21T08:19:36.429Z,48.94
2023-01-21T08:22:03.640Z,48.52
2023-01-21T08:24:30.958Z,48.35
2023-01-21T08:27:01.286Z,47.98
2023-01-21T08:29:28.526Z,47.66
2023-01-21T08:31:55.835Z,47.43
2023-01-21T08:34:23.484Z,47.69
2023-01-21T08:36:50.911Z,47.91
2023-01-21T08:39:18.177Z,47.64
2023-01-21T08:41:46.263Z,47.36
2023-01-21T08:44:13.496Z,47.17
2023-01-21T08:46:40.847Z,47.57
2023-01-21T08:49:08.229Z,47.34
2023-01-21T08:51:35.620Z,47.53
2023-01-21T08:54:05.492Z,47.52
2023-01-21T08:56:32.968Z,47.36
2023-01-21T08:59:00.399Z,46.75
2023-01-21T09:01:27.677Z,46.85
2023-01-21T09:03:58.918Z,46.68
2023-01-21T09:06:27.561Z,46.68
2023-01-21T09:08:55.198Z,46.79
2023-01-21T09:11:22.767Z,46.88
2023-01-21T09:13:50.294Z,46.33
2023-01-21T09:16:19.779Z,46.48
2023-01-21T09:18:47.741Z,46.43
2023-01-21T09:21:15.110Z,46.81
2023-01-21T09:23:42.387Z,46.35
2023-01-21T09:26:17.484Z,45.86
2023-01-21T09:28:46.165Z,46.04
2023-01-21T09:31:15.322Z,45.76
2023-01-21T09:33:44.489Z,45.42
2023-01-21T09:36:14.783Z,45.62
2023-01-21T09:38:43.422Z,46.05
2023-01-21T09:41:19.860Z,45.44
2023-01-21T09:43:51.822Z,44.94
2023-01-21T09:46:36.135Z,45.38
2023-01-21T09:49:04.410Z,45.56
2023-01-21T09:51:42.969Z,46.12
2023-01-21T09:54:18.419Z,46.03
2023-01-21T09:57:00.660Z,45.83
2023-01-21T09:59:53.591Z,45.77
2023-01-21T10:02:52.128Z,45.56
2023-01-21T10:05:25.372Z,44.73
2023-01-21T10:08:20.914Z,44.70
2023-01-21T10:11:09.869Z,44.44
2023-01-21T10:13:46.299Z,44.11
2023-01-21T10:16:22.467Z,44.06
2023-01-21T10:18:51.007Z,44.05
2023-01-21T10:21:30.409Z,43.99
2023-01-21T10:24:21.995Z,43.67
2023-01-21T10:26:49.769Z,43.29
2023-01-21T10:29:18.657Z,42.45
2023-01-21T10:31:51.929Z,41.77
2023-01-21T10:34:19.407Z,42.45
2023-01-21T10:36:54.819Z,42.52
2023-01-21T10:39:34.380Z,41.92
2023-01-21T10:42:39.760Z,41.21
2023-01-21T10:45:18.758Z,40.50
2023-01-21T10:48:26.884Z,40.69
2023-01-21T10:51:07.291Z,40.64
2023-01-21T10:53:37.650Z,39.80
2023-01-21T10:56:29.757Z,39.51
2023-01-21T10:59:00.952Z,39.77
2023-01-21T11:01:30.271Z,39.59
2023-01-21T11:03:59.035Z,39.76
2023-01-21T11:06:26.311Z,40.04
2023-01-21T11:08:56.908Z,40.20
2023-01-21T11:11:32.176Z,40.17
2023-01-21T11:13:59.442Z,40.35
2023-01-21T11:16:38.439Z,40.45
2023-01-21T11:19:06.553Z,40.50
2023-01-21T11:21:35.112Z,40.11
2023-01-21T11:24:05.128Z,40.20
2023-01-21T11:26:33.930Z,40.18
2023-01-21T11:29:18.380Z,40.35
2023-01-21T11:31:50.030Z,40.85
2023-01-21T11:34:21.617Z,41.07
2023-01-21T11:37:04.858Z,40.93
2023-01-21T11:39:51.731Z,41.00
2023-01-21T11:42:18.947Z,41.44
2023-01-21T11:45:06.049Z,41.52
2023-01-21T11:47:37.539Z,41.59
2023-01-21T11:50:12.793Z,41.53
2023-01-21T11:52:40.120Z,41.42
2023-01-21T11:55:25.465Z,41.84
2023-01-21T11:57:54.225Z,42.09
2023-01-21T12:00:24.107Z,42.40
2023-01-21T12:02:53.480Z,42.75
2023-01-21T12:05:34.923Z,42.79
2023-01-21T12:08:03.812Z,43.34
2023-01-21T12:10:36.462Z,43.12
2023-01-21T12:13:22.975Z,43.23
2023-01-21T12:15:56.361Z,42.76
2023-01-21T12:18:49.077Z,43.17
2023-01-21T12:21:19.410Z,43.32
2023-01-21T12:24:06.048Z,43.39
2023-01-21T12:26:41.510Z,43.66
2023-01-21T12:29:40.313Z,44.70
2023-01-21T12:32:21.043Z,44.41
2023-01-21T12:35:14.299Z,44.44
2023-01-21T12:37:47.238Z,44.47
2023-01-21T12:40:20.657Z,43.92
2023-01-21T12:42:50.254Z,43.74
2023-01-21T12:45:22.682Z,43.72
2023-01-21T12:48:01.724Z,43.62
2023-01-21T12:50:51.322Z,43.68
2023-01-21T12:53:36.950Z,43.92
2023-01-21T12:56:39.520Z,43.86
2023-01-21T12:59:21.948Z,43.97
2023-01-21T13:01:52.295Z,43.88
2023-01-21T13:04:33.051Z,43.61
2023-01-21T13:07:05.080Z,43.59
2023-01-21T13:09:44.367Z,43.93
2023-01-21T13:12:22.181Z,44.20
2023-01-21T13:15:00.556Z,44.27
2023-01-21T13:17:29.680Z,44.50
2023-01-21T13:19:56.902Z,44.51
2023-01-21T13:22:58.150Z,44.37
2023-01-21T13:25:40.319Z,44.18
2023-01-21T13:28:34.636Z,44.00
2023-01-21T13:31:19.474Z,43.72
2023-01-21T13:33:56.419Z,43.74
2023-01-21T13:36:30.158Z,43.89
2023-01-21T13:39:00.330Z,44.23
2023-01-21T13:41:37.188Z,44.13
2023-01-21T13:44:19.783Z,44.35
2023-01-21T13:46:55.320Z,44.35
2023-01-21T13:49:41.615Z,44.37
2023-01-21T13:52:21.567Z,44.19
2023-01-21T13:55:06.049Z,44.61
2023-01-21T13:57:43.491Z,44.97
2023-01-21T14:00:17.789Z,44.99
2023-01-21T14:02:50.855Z,45.18
2023-01-21T14:05:24.307Z,45.29
2023-01-21T14:07:56.415Z,45.37
2023-01-21T14:10:40.757Z,45.54
2023-01-21T14:13:42.398Z,45.55
2023-01-21T14:16:18.808Z,45.60
2023-01-21T14:19:02.264Z,45.54
2023-01-21T14:21:37.574Z,45.77
2023-01-21T14:24:34.214Z,45.93
2023-01-21T14:27:17.944Z,45.96
2023-01-21T14:29:48.016Z,45.99
2023-01-21T14:33:00.311Z,46.02
2023-01-21T14:35:36.577Z,46.09
2023-01-21T14:38:48.795Z,45.95
2023-01-21T14:41:15.897Z,46.30
2023-01-21T14:43:44.625Z,46.27
2023-01-21T14:46:25.360Z,46.15
2023-01-21T14:49:06.574Z,46.39
2023-01-21T14:51:44.939Z,46.19
2023-01-21T14:54:17.509Z,46.20
2023-01-21T14:57:13.645Z,46.28
2023-01-21T14:59:46.502Z,46.27
2023-01-21T15:02:33.904Z,45.98
2023-01-21T15:05:03.170Z,45.83
2023-01-21T15:07:41.637Z,46.01
2023-01-21T15:10:11.081Z,46.19
2023-01-21T15:12:38.655Z,46.00
2023-01-21T15:15:29.614Z,45.97
2023-01-21T15:18:04.199Z,46.21
2023-01-21T15:21:00.955Z,45.99
2023-01-21T15:23:31.275Z,45.38
2023-01-21T15:26:07.719Z,45.57
2023-01-21T15:28:40.611Z,45.78
2023-01-21T15:31:21.147Z,45.76
2023-01-21T15:33:50.649Z,45.61
2023-01-21T15:36:26.435Z,45.55
2023-01-21T15:38:59.621Z,45.62
2023-01-21T15:41:56.170Z,45.81
2023-01-21T15:44:32.845Z,45.69
2023-01-21T15:47:38.443Z,45.61
2023-01-21T15:50:13.485Z,45.90
2023-01-21T15:52:43.702Z,46.24
2023-01-21T15:55:38.677Z,46.39
2023-01-21T15:58:40.277Z,46.25
2023-01-21T16:01:27.042Z,46.33
2023-01-21T16:04:08.887Z,46.71
2023-01-21T16:06:49.168Z,46.79
2023-01-21T16:09:38.060Z,47.25
2023-01-21T16:12:24.088Z,46.95
2023-01-21T16:15:05.377Z,46.80
2023-01-21T16:17:38.775Z,47.06
2023-01-21T16:20:06.944Z,47.28
2023-01-21T16:22:35.089Z,46.74
2023-01-21T16:25:12.757Z,46.56
2023-01-21T16:27:49.023Z,46.33
2023-01-21T16:30:20.026Z,46.55
2023-01-21T16:32:47.387Z,46.46
2023-01-21T16:35:15.184Z,46.71
2023-01-21T16:37:44.506Z,46.83
2023-01-21T16:40:11.711Z,46.73
2023-01-21T16:42:42.720Z,46.67
2023-01-21T16:45:20.723Z,46.65
2023-01-21T16:47:54.090Z,46.60
2023-01-21T16:50:28.974Z,46.84
2023-01-21T16:52:56.823Z,46.94
2023-01-21T16:55:28.407Z,46.76
2023-01-21T16:57:57.387Z,46.68
2023-01-21T17:00:31.924Z,46.60
2023-01-21T17:02:59.790Z,46.54
2023-01-21T17:05:28.884Z,46.65
2023-01-21T17:07:58.328Z,46.65
2023-01-21T17:10:37.832Z,46.70
2023-01-21T17:13:06.627Z,47.00
2023-01-21T17:15:37.754Z,47.14
2023-01-21T17:18:32.001Z,47.36
2023-01-21T17:21:00.497Z,47.34
2023-01-21T17:23:30.183Z,47.03
2023-01-21T17:26:01.047Z,47.18
2023-01-21T17:28:30.777Z,47.15
2023-01-21T17:31:14.978Z,47.50
2023-01-21T17:33:49.612Z,47.60
2023-01-21T17:36:18.604Z,47.41
2023-01-21T17:38:46.712Z,47.66
2023-01-21T17:41:24.883Z,47.71
2023-01-21T17:43:53.177Z,47.72
2023-01-21T17:46:22.875Z,47.71
2023-01-21T17:48:59.183Z,47.48
2023-01-21T17:51:28.667Z,47.74
2023-01-21T17:54:04.085Z,47.73
2023-01-21T17:56:39.815Z,47.59
2023-01-21T17:59:34.631Z,47.61
2023-01-21T18:02:02.876Z,47.58
2023-01-21T18:04:30.365Z,47.40
2023-01-21T18:06:57.637Z,47.44
2023-01-21T18:09:26.320Z,47.45
2023-01-21T18:11:55.418Z,48.82
2023-01-21T18:14:26.187Z,48.78
2023-01-21T18:16:56.357Z,49.00
2023-01-21T18:19:35.393Z,49.10
2023-01-21T18:22:04.310Z,49.30
2023-01-21T18:24:31.868Z,49.35
2023-01-21T18:26:59.753Z,49.27
2023-01-21T18:29:30.784Z,49.45
2023-01-21T18:31:58.527Z,49.29
2023-01-21T18:34:25.897Z,49.57
2023-01-21T18:36:53.208Z,49.50
2023-01-21T18:39:20.825Z,49.67
2023-01-21T18:41:48.091Z,49.49
2023-01-21T18:44:15.426Z,49.64
2023-01-21T18:46:43.677Z,49.74
2023-01-21T18:49:19.296Z,49.63
2023-01-21T18:51:46.733Z,49.35
2023-01-21T18:54:14.799Z,49.36
2023-01-21T18:56:42.991Z,49.46
2023-01-21T18:59:15.147Z,49.18
2023-01-21T19:01:42.940Z,49.18
2023-01-21T19:04:12.074Z,49.15
2023-01-21T19:06:40.129Z,49.17
2023-01-21T19:09:21.717Z,49.31
2023-01-21T19:11:49.221Z,49.19
2023-01-21T19:14:16.973Z,49.39
2023-01-21T19:16:44.483Z,49.53
2023-01-21T19:19:16.139Z,49.63
2023-01-21T19:21:43.504Z,49.76
2023-01-21T19:24:12.276Z,49.96
2023-01-21T19:26:39.784Z,49.80
2023-01-21T19:29:10.913Z,49.53
2023-01-21T19:31:38.299Z,49.96
2023-01-21T19:34:05.664Z,49.97
2023-01-21T19:36:33.305Z,49.95
2023-01-21T19:39:01.812Z,50.05
2023-01-21T19:41:29.261Z,49.81
2023-01-21T19:43:56.527Z,49.64
2023-01-21T19:46:24.186Z,49.90
2023-01-21T19:48:53.884Z,50.18
2023-01-21T19:51:21.224Z,50.21
2023-01-21T19:53:48.426Z,49.99
2023-01-21T19:56:22.613Z,49.99
2023-01-21T19:58:50.044Z,49.77
2023-01-21T20:01:17.344Z,49.72
2023-01-21T20:03:58.588Z,49.66
2023-01-21T20:06:28.260Z,49.64
2023-01-21T20:08:55.674Z,49.49
2023-01-21T20:11:23.446Z,49.59
2023-01-21T20:13:51.051Z,49.59
2023-01-21T20:16:19.375Z,49.45
2023-01-21T20:18:48.015Z,49.31
2023-01-21T20:21:15.221Z,49.48
2023-01-21T20:23:42.834Z,49.67
2023-01-21T20:26:18.414Z,49.90
2023-01-21T20:28:50.428Z,50.00
2023-01-21T20:31:18.268Z,50.26
2023-01-21T20:33:45.734Z,50.37
2023-01-21T20:36:20.570Z,50.09
2023-01-21T20:38:47.783Z,49.73
2023-01-21T20:41:14.994Z,49.50
2023-01-21T20:43:42.412Z,49.61
2023-01-21T20:46:17.584Z,49.83
2023-01-21T20:48:44.976Z,50.00
2023-01-21T20:51:12.420Z,50.31
2023-01-21T20:53:39.766Z,50.50
2023-01-21T20:56:18.700Z,50.64
2023-01-21T20:58:48.098Z,50.63
2023-01-21T21:01:16.016Z,50.35
2023-01-21T21:03:43.337Z,50.43
2023-01-21T21:06:21.656Z,50.57
2023-01-21T21:08:49.381Z,50.60
2023-01-21T21:11:16.982Z,50.70
2023-01-21T21:13:46.619Z,50.69
2023-01-21T21:16:30.145Z,50.83
2023-01-21T21:18:58.551Z,50.96
2023-01-21T21:21:25.759Z,50.81
2023-01-21T21:23:53.266Z,50.32
2023-01-21T21:26:23.204Z,50.30
2023-01-21T21:28:51.211Z,50.34
2023-01-21T21:31:18.668Z,49.88
2023-01-21T21:33:46.029Z,50.26
2023-01-21T21:36:17.465Z,50.38
2023-01-21T21:38:44.756Z,50.72
2023-01-21T21:41:35.244Z,50.75
2023-01-21T21:44:02.841Z,50.80
2023-01-21T21:46:48.758Z,50.51
2023-01-21T21:49:16.263Z,50.63
2023-01-21T21:51:45.572Z,50.64
2023-01-21T21:54:14.151Z,50.47
2023-01-21T21:56:41.479Z,50.58
2023-01-21T21:59:08.741Z,50.78
2023-01-21T22:01:36.290Z,50.85
2023-01-21T22:04:04.154Z,50.59
2023-01-21T22:06:31.835Z,50.62
2023-01-21T22:08:59.255Z,50.71
2023-01-21T22:11:26.866Z,50.79
2023-01-21T22:13:54.935Z,50.88
2023-01-21T22:16:24.108Z,50.69
2023-01-21T22:18:52.315Z,50.63
2023-01-21T22:21:22.125Z,50.62
2023-01-21T22:23:50.182Z,50.62
2023-01-21T22:26:22.103Z,50.56
2023-01-21T22:28:51.438Z,50.69
2023-01-21T22:31:27.013Z,51.17
2023-01-21T22:33:54.601Z,51.19
2023-01-21T22:36:23.552Z,51.48
2023-01-21T22:38:51.040Z,51.50
2023-01-21T22:41:20.195Z,51.23
2023-01-21T22:43:50.757Z,51.16
2023-01-21T22:46:26.278Z,50.91
2023-01-21T22:48:54.083Z,51.08
2023-01-21T22:51:23.371Z,51.32
2023-01-21T22:53:51.072Z,51.40
2023-01-21T22:56:20.258Z,51.62
2023-01-21T22:58:47.526Z,51.70
2023-01-21T23:01:25.886Z,51.57
2023-01-21T23:03:53.326Z,51.71
2023-01-21T23:06:20.643Z,51.71
2023-01-21T23:08:47.882Z,51.13
2023-01-21T23:11:15.663Z,50.95
2023-01-21T23:13:43.063Z,51.01
2023-01-21T23:16:11.991Z,51.09
2023-01-21T23:18:40.830Z,51.12
2023-01-21T23:21:10.048Z,51.40
2023-01-21T23:23:38.206Z,51.64
2023-01-21T23:26:06.244Z,51.77
2023-01-21T23:28:33.839Z,51.72
2023-01-21T23:31:05.810Z,51.76
2023-01-21T23:33:33.618Z,52.27
2023-01-21T23:36:01.317Z,52.52
2023-01-21T23:38:29.291Z,52.28
2023-01-21T23:40:57.209Z,51.76
2023-01-21T23:43:26.552Z,51.55
2023-01-21T23:45:54.756Z,51.67
2023-01-21T23:48:22.447Z,51.87
2023-01-21T23:50:49.625Z,52.44
2023-01-21T23:53:17.428Z,52.82
2023-01-21T23:55:44.711Z,52.86
2023-01-21T23:58:12.269Z,52.64
